createdAt,value
2023-04-26T00:03:50.812Z,0.1
2023-04-26T00:09:50.611Z,0
2023-04-26T00:21:50.613Z,0
2023-04-26T00:27:50.457Z,0.4
2023-04-26T00:39:50.628Z,0
2023-04-26T00:45:50.635Z,0
2023-04-26T00:51:50.558Z,0
2023-04-26T00:57:50.466Z,0
2023-04-26T01:03:50.864Z,0
2023-04-26T01:09:50.724Z,0
2023-04-26T01:15:50.596Z,0
2023-04-26T01:21:50.691Z,0
2023-04-26T01:27:50.679Z,0
2023-04-26T01:33:50.670Z,0
2023-04-26T01:39:50.456Z,0
2023-04-26T01:45:50.748Z,0
2023-04-26T01:51:50.466Z,0
2023-04-26T01:57:50.476Z,0
2023-04-26T02:03:50.482Z,0
2023-04-26T02:09:50.640Z,0
2023-04-26T02:15:50.476Z,0
2023-04-26T02:21:50.455Z,0
2023-04-26T02:27:50.452Z,0
2023-04-26T02:33:50.468Z,0
2023-04-26T02:39:50.436Z,0
2023-04-26T02:45:50.445Z,0
2023-04-26T02:51:50.436Z,0
2023-04-26T02:57:50.439Z,0
2023-04-26T03:03:50.585Z,0
2023-04-26T03:09:50.450Z,0
2023-04-26T03:15:50.435Z,0
2023-04-26T03:21:50.727Z,0
2023-04-26T03:27:50.458Z,0
2023-04-26T03:33:50.449Z,0
2023-04-26T03:39:50.438Z,0
2023-04-26T03:45:50.478Z,0
2023-04-26T03:51:50.443Z,0
2023-04-26T03:57:50.444Z,0
2023-04-26T04:03:50.694Z,0
2023-04-26T04:09:50.461Z,0
2023-04-26T04:15:50.496Z,0
2023-04-26T04:21:50.420Z,0
2023-04-26T04:27:50.437Z,0
2023-04-26T04:33:50.437Z,0
2023-04-26T04:39:50.436Z,0
2023-04-26T04:45:50.478Z,0
2023-04-26T04:51:50.442Z,0
2023-04-26T04:57:50.456Z,0
2023-04-26T05:09:50.437Z,0
2023-04-26T05:15:50.436Z,0
2023-04-26T05:21:50.451Z,0
2023-04-26T05:27:50.431Z,0
2023-04-26T05:33:50.642Z,0
2023-04-26T05:39:50.437Z,0
2023-04-26T05:51:50.446Z,0
2023-04-26T05:57:50.479Z,0
2023-04-26T06:03:50.696Z,0
2023-04-26T06:09:50.423Z,0
2023-04-26T06:15:50.426Z,0
2023-04-26T06:21:50.428Z,0
2023-04-26T06:28:00.736Z,0.2
2023-04-26T06:33:50.656Z,1
2023-04-26T06:39:50.420Z,2.9
2023-04-26T06:51:50.752Z,10.3
2023-04-26T06:57:50.486Z,11.9
2023-04-26T07:03:50.835Z,11.7
2023-04-26T07:09:50.441Z,10.5
2023-04-26T07:15:50.488Z,9.2
2023-04-26T07:21:50.442Z,12.4
2023-04-26T07:27:50.446Z,11.8
2023-04-26T07:33:50.737Z,10.4
2023-04-26T07:39:50.486Z,11.4
2023-04-26T07:45:50.486Z,10.5
2023-04-26T07:51:50.453Z,9.9
2023-04-26T07:57:50.440Z,9
2023-04-26T08:03:50.708Z,9.1
2023-04-26T08:09:50.496Z,9.6
2023-04-26T08:15:50.454Z,10
2023-04-26T08:21:50.454Z,8.5
2023-04-26T08:27:50.439Z,7.7
2023-04-26T08:33:50.700Z,8.4
2023-04-26T08:39:50.450Z,8.6
2023-04-26T08:45:50.464Z,9.5
2023-04-26T08:51:50.448Z,10.2
2023-04-26T08:57:50.444Z,11.1
2023-04-26T09:03:50.786Z,11.4
2023-04-26T09:09:50.440Z,13
2023-04-26T09:15:50.507Z,11.6
2023-04-26T09:21:50.442Z,10.8
2023-04-26T09:27:50.478Z,10.3
2023-04-26T09:33:50.462Z,9.5
2023-04-26T09:39:50.451Z,9.9
2023-04-26T09:45:50.791Z,12.1
2023-04-26T09:51:50.461Z,14.1
2023-04-26T09:57:50.468Z,11.5
2023-04-26T10:03:50.615Z,11.8
2023-04-26T10:09:50.461Z,11.7
2023-04-26T10:15:50.490Z,13.1
2023-04-26T10:21:50.449Z,11.2
2023-04-26T10:27:50.456Z,10.2
2023-04-26T10:33:50.471Z,13.4
2023-04-26T10:39:50.456Z,15.7
2023-04-26T10:45:50.487Z,15.6
2023-04-26T10:51:50.467Z,16.3
2023-04-26T10:57:50.500Z,17.2
2023-04-26T11:03:50.982Z,18
2023-04-26T11:09:50.467Z,17.1
2023-04-26T11:15:52.051Z,14
2023-04-26T11:21:50.523Z,13.4
2023-04-26T11:27:50.473Z,12.4
2023-04-26T11:33:50.952Z,12
2023-04-26T11:39:50.477Z,12.1
2023-04-26T11:45:50.473Z,13.7
2023-04-26T11:51:50.482Z,12.7
2023-04-26T11:57:50.471Z,13.8
2023-04-26T12:03:50.730Z,12.8
2023-04-26T12:09:50.484Z,12.2
2023-04-26T12:15:50.489Z,12.5
2023-04-26T12:21:50.479Z,13.1
2023-04-26T12:27:50.480Z,13.3
2023-04-26T12:33:50.486Z,10.9
2023-04-26T12:39:50.474Z,12
2023-04-26T12:45:50.512Z,11.2
2023-04-26T12:51:50.510Z,12.2
2023-04-26T12:57:50.512Z,12.8
2023-04-26T13:03:50.555Z,13.6
2023-04-26T13:09:50.489Z,12.6
2023-04-26T13:15:50.502Z,13.8
2023-04-26T13:21:50.482Z,13.3
2023-04-26T13:27:50.477Z,14.6
2023-04-26T13:33:50.491Z,15.4
2023-04-26T13:39:50.485Z,14.2
2023-04-26T13:45:50.514Z,12.8
2023-04-26T13:51:50.543Z,14.5
2023-04-26T13:57:50.505Z,13.9
2023-04-26T14:09:50.476Z,13.8
2023-04-26T14:21:50.476Z,13.4
2023-04-26T14:27:52.346Z,13.3
2023-04-26T14:33:50.468Z,13.2
2023-04-26T14:39:50.481Z,13.1
2023-04-26T14:45:50.520Z,13.5
2023-04-26T14:51:52.976Z,12.2
2023-04-26T14:57:50.470Z,11.8
2023-04-26T15:03:50.605Z,13
2023-04-26T15:09:50.477Z,12.1
2023-04-26T15:15:50.500Z,13.3
2023-04-26T15:21:50.483Z,12.1
2023-04-26T15:27:50.479Z,11.6
2023-04-26T15:33:50.477Z,12.5
2023-04-26T15:39:50.475Z,12.5
2023-04-26T15:45:50.530Z,12.6
2023-04-26T15:51:50.488Z,12.2
2023-04-26T15:57:50.486Z,11.7
2023-04-26T16:03:50.700Z,12.1
2023-04-26T16:09:50.488Z,11.8
2023-04-26T16:15:50.513Z,12.3
2023-04-26T16:21:50.483Z,11.8
2023-04-26T16:27:50.489Z,11.8
2023-04-26T16:33:50.495Z,12.2
2023-04-26T16:39:50.488Z,11.9
2023-04-26T16:45:50.489Z,11.3
2023-04-26T16:51:50.486Z,11.7
2023-04-26T16:57:50.546Z,11
2023-04-26T17:03:50.597Z,10.6
2023-04-26T17:09:50.552Z,10.8
2023-04-26T17:15:50.476Z,11.1
2023-04-26T17:21:50.489Z,10.8
2023-04-26T17:27:50.479Z,10.6
2023-04-26T17:33:50.533Z,10.3
2023-04-26T17:39:50.490Z,10.6
2023-04-26T17:45:50.542Z,10.8
2023-04-26T17:51:50.468Z,10.7
2023-04-26T17:57:50.472Z,10.8
2023-04-26T18:03:50.550Z,10.6
2023-04-26T18:09:50.478Z,10.7
2023-04-26T18:15:50.477Z,10.5
2023-04-26T18:21:50.479Z,10.2
2023-04-26T18:27:50.479Z,10.1
2023-04-26T18:33:50.472Z,9.8
2023-04-26T18:39:50.468Z,9.3
2023-04-26T18:45:50.480Z,8.9
2023-04-26T18:52:00.751Z,8.6
2023-04-26T18:57:50.499Z,8.9
2023-04-26T19:03:50.564Z,8.7
2023-04-26T19:09:54.788Z,8.7
2023-04-26T19:15:50.530Z,9.2
2023-04-26T19:21:50.503Z,9.6
2023-04-26T19:27:50.478Z,9.5
2023-04-26T19:33:50.486Z,9.1
2023-04-26T19:39:50.508Z,9.5
2023-04-26T19:45:50.495Z,9.4
2023-04-26T19:51:50.503Z,9.5
2023-04-26T19:57:50.471Z,9.2
2023-04-26T20:03:50.492Z,9
2023-04-26T20:09:50.475Z,8.9
2023-04-26T20:15:50.487Z,8.9
2023-04-26T20:21:50.475Z,8.8
2023-04-26T20:27:50.492Z,8.7
2023-04-26T20:39:50.472Z,8.4
2023-04-26T20:45:50.522Z,8.2
2023-04-26T20:51:50.461Z,7.9
2023-04-26T20:57:50.487Z,7.8
2023-04-26T21:03:50.551Z,7.7
2023-04-26T21:09:50.465Z,7.6
2023-04-26T21:15:50.531Z,7.6
2023-04-26T21:21:50.463Z,7.5
2023-04-26T21:27:50.485Z,7.4
2023-04-26T21:33:50.466Z,7.3
2023-04-26T21:39:50.475Z,7.3
2023-04-26T21:45:50.491Z,7.3
2023-04-26T21:51:50.457Z,7.1
2023-04-26T21:57:50.475Z,7.2
2023-04-26T22:03:50.579Z,7.2
2023-04-26T22:09:50.478Z,7.4
2023-04-26T22:15:50.465Z,7.2
2023-04-26T22:21:50.472Z,7.5
2023-04-26T22:27:50.456Z,7.5
2023-04-26T22:33:50.488Z,7.4
2023-04-26T22:39:50.477Z,7.3
2023-04-26T22:45:50.534Z,7.2
2023-04-26T22:52:01.165Z,7.2
2023-04-26T22:57:50.466Z,6.9
2023-04-26T23:03:50.525Z,6.7
2023-04-26T23:09:50.474Z,6.4
2023-04-26T23:15:50.451Z,6.2
2023-04-26T23:21:50.495Z,6.3
2023-04-26T23:27:50.457Z,6.2
2023-04-26T23:33:50.481Z,6.1
2023-04-26T23:39:50.473Z,6.1
2023-04-26T23:45:50.508Z,5.9
2023-04-26T23:51:50.474Z,6
2023-04-26T23:57:50.464Z,6
